Terminal Aerodrome Forecast
Issued by NWS

Current Version | Previous Version | Text Only | Print | Product List | Glossary On
Versions: 1 2 3 4 5 6 7 8 9 10 11 12 13 14 15 16 17 18 19 20 21 22 23 24 25 26 27 28 29 30 31 32 33 34
785
FTUS43 KGRR 141149
TAFMKG
TAF
KMKG 141149Z 1412/1512 34005KT 5SM -SN BKN040
     FM141700 30009KT 6SM -SN BKN030
     FM142200 27007KT P6SM -SN BKN035
     FM150500 24009KT 2SM -SHSN BR OVC020=

USA.gov is the U.S. government's official web portal to all federal, state and local government web resources and services.